sensor_id;sensor_type;location;lat;lon;timestamp;pressure;altitude;pressure_sealevel;temperature;humidity
11345;BME280;5727;42.600;23.028;2023-04-01T00:00:59;92823.34;;;12.62;69.30
11345;BME280;5727;42.600;23.028;2023-04-01T00:03:27;92821.84;;;12.64;68.37
11345;BME280;5727;42.600;23.028;2023-04-01T00:05:54;92821.56;;;12.69;66.97
11345;BME280;5727;42.600;23.028;2023-04-01T00:08:21;92822.66;;;12.68;66.85
11345;BME280;5727;42.600;23.028;2023-04-01T00:10:50;92823.44;;;12.72;67.03
11345;BME280;5727;42.600;23.028;2023-04-01T00:13:17;92835.44;;;12.70;68.08
11345;BME280;5727;42.600;23.028;2023-04-01T00:15:44;92837.06;;;12.81;68.29
11345;BME280;5727;42.600;23.028;2023-04-01T00:18:11;92825.88;;;12.88;67.94
11345;BME280;5727;42.600;23.028;2023-04-01T00:20:39;92833.38;;;12.89;69.61
11345;BME280;5727;42.600;23.028;2023-04-01T00:23:09;92835.31;;;12.93;69.43
11345;BME280;5727;42.600;23.028;2023-04-01T00:25:36;92824.03;;;12.92;69.60
11345;BME280;5727;42.600;23.028;2023-04-01T00:28:04;92817.72;;;12.97;70.03
11345;BME280;5727;42.600;23.028;2023-04-01T00:30:31;92816.16;;;12.92;70.11
11345;BME280;5727;42.600;23.028;2023-04-01T00:32:57;92814.28;;;12.93;68.67
11345;BME280;5727;42.600;23.028;2023-04-01T00:35:24;92820.66;;;12.92;66.08
11345;BME280;5727;42.600;23.028;2023-04-01T00:37:51;92805.22;;;12.86;65.87
11345;BME280;5727;42.600;23.028;2023-04-01T00:40:25;92798.81;;;12.87;66.19
11345;BME280;5727;42.600;23.028;2023-04-01T00:42:52;92806.41;;;12.93;69.15
11345;BME280;5727;42.600;23.028;2023-04-01T00:45:33;92792.06;;;12.86;63.64
11345;BME280;5727;42.600;23.028;2023-04-01T00:48:05;92785.28;;;12.85;62.39
11345;BME280;5727;42.600;23.028;2023-04-01T00:50:33;92786.00;;;12.82;64.85
11345;BME280;5727;42.600;23.028;2023-04-01T00:53:02;92787.50;;;12.83;65.29
11345;BME280;5727;42.600;23.028;2023-04-01T00:55:32;92781.56;;;12.86;64.63
11345;BME280;5727;42.600;23.028;2023-04-01T00:58:02;92781.19;;;12.88;65.12
11345;BME280;5727;42.600;23.028;2023-04-01T01:00:32;92761.63;;;12.85;62.05
11345;BME280;5727;42.600;23.028;2023-04-01T01:02:59;92753.03;;;12.88;62.37
11345;BME280;5727;42.600;23.028;2023-04-01T01:05:38;92742.13;;;12.86;63.67
11345;BME280;5727;42.600;23.028;2023-04-01T01:08:16;92745.88;;;12.89;65.24
11345;BME280;5727;42.600;23.028;2023-04-01T01:10:49;92747.38;;;12.86;65.46
11345;BME280;5727;42.600;23.028;2023-04-01T01:13:19;92737.22;;;12.85;66.50
11345;BME280;5727;42.600;23.028;2023-04-01T01:15:52;92737.66;;;12.91;66.91
11345;BME280;5727;42.600;23.028;2023-04-01T01:18:27;92739.09;;;12.84;66.15
11345;BME280;5727;42.600;23.028;2023-04-01T01:21:30;92733.91;;;12.92;64.93
11345;BME280;5727;42.600;23.028;2023-04-01T01:24:13;92739.19;;;12.99;63.70
11345;BME280;5727;42.600;23.028;2023-04-01T01:26:52;92739.69;;;13.04;63.45
11345;BME280;5727;42.600;23.028;2023-04-01T01:29:42;92734.28;;;12.94;62.10
11345;BME280;5727;42.600;23.028;2023-04-01T01:32:17;92740.81;;;13.07;62.38
11345;BME280;5727;42.600;23.028;2023-04-01T01:34:53;92729.19;;;13.08;61.88
11345;BME280;5727;42.600;23.028;2023-04-01T01:37:25;92736.34;;;13.11;62.89
11345;BME280;5727;42.600;23.028;2023-04-01T01:39:56;92728.88;;;13.16;60.60
11345;BME280;5727;42.600;23.028;2023-04-01T01:42:25;92723.97;;;13.15;58.25
11345;BME280;5727;42.600;23.028;2023-04-01T01:44:53;92712.31;;;13.12;58.32
11345;BME280;5727;42.600;23.028;2023-04-01T01:47:22;92715.75;;;13.20;55.65
11345;BME280;5727;42.600;23.028;2023-04-01T01:49:50;92715.03;;;13.26;56.10
11345;BME280;5727;42.600;23.028;2023-04-01T01:52:17;92706.75;;;13.24;54.10
11345;BME280;5727;42.600;23.028;2023-04-01T01:54:49;92706.81;;;13.31;54.08
11345;BME280;5727;42.600;23.028;2023-04-01T01:57:18;92705.72;;;13.39;54.20
11345;BME280;5727;42.600;23.028;2023-04-01T01:59:47;92699.75;;;13.39;53.61
11345;BME280;5727;42.600;23.028;2023-04-01T02:02:15;92707.63;;;13.39;53.02
11345;BME280;5727;42.600;23.028;2023-04-01T02:04:44;92703.50;;;13.41;53.67
11345;BME280;5727;42.600;23.028;2023-04-01T02:07:16;92698.28;;;13.48;53.37
11345;BME280;5727;42.600;23.028;2023-04-01T02:09:45;92695.28;;;13.46;52.38
11345;BME280;5727;42.600;23.028;2023-04-01T02:12:15;92694.16;;;13.51;52.17
11345;BME280;5727;42.600;23.028;2023-04-01T02:14:45;92691.19;;;13.56;52.28
11345;BME280;5727;42.600;23.028;2023-04-01T02:17:15;92683.31;;;13.59;52.20
11345;BME280;5727;42.600;23.028;2023-04-01T02:19:47;92682.94;;;13.61;52.10
11345;BME280;5727;42.600;23.028;2023-04-01T02:22:18;92677.69;;;13.64;51.97
11345;BME280;5727;42.600;23.028;2023-04-01T02:24:49;92683.69;;;13.61;51.86
11345;BME280;5727;42.600;23.028;2023-04-01T02:27:18;92689.28;;;13.56;51.96
11345;BME280;5727;42.600;23.028;2023-04-01T02:29:46;92689.75;;;13.65;51.74
11345;BME280;5727;42.600;23.028;2023-04-01T02:32:14;92694.25;;;13.68;51.36
11345;BME280;5727;42.600;23.028;2023-04-01T02:34:43;92692.00;;;13.67;51.11
11345;BME280;5727;42.600;23.028;2023-04-01T02:37:10;92693.88;;;13.70;51.29
11345;BME280;5727;42.600;23.028;2023-04-01T02:39:38;92695.41;;;13.71;51.21
11345;BME280;5727;42.600;23.028;2023-04-01T02:42:05;92703.69;;;13.69;51.37
11345;BME280;5727;42.600;23.028;2023-04-01T02:44:33;92711.59;;;13.73;51.55
11345;BME280;5727;42.600;23.028;2023-04-01T02:47:03;92709.69;;;13.73;51.91
11345;BME280;5727;42.600;23.028;2023-04-01T02:49:30;92723.22;;;13.72;52.35
11345;BME280;5727;42.600;23.028;2023-04-01T02:51:56;92728.06;;;13.63;53.29
11345;BME280;5727;42.600;23.028;2023-04-01T02:54:23;92726.22;;;13.67;53.25
11345;BME280;5727;42.600;23.028;2023-04-01T02:56:50;92723.56;;;13.60;53.85
11345;BME280;5727;42.600;23.028;2023-04-01T02:59:16;92741.63;;;13.65;54.31
11345;BME280;5727;42.600;23.028;2023-04-01T03:01:44;92751.59;;;13.42;56.97
11345;BME280;5727;42.600;23.028;2023-04-01T03:04:11;92736.47;;;12.84;62.05
11345;BME280;5727;42.600;23.028;2023-04-01T03:06:38;92742.97;;;12.57;65.24
11345;BME280;5727;42.600;23.028;2023-04-01T03:09:04;92721.00;;;12.39;67.28
11345;BME280;5727;42.600;23.028;2023-04-01T03:11:31;92723.31;;;12.44;65.83
11345;BME280;5727;42.600;23.028;2023-04-01T03:13:58;92721.13;;;12.50;69.64
11345;BME280;5727;42.600;23.028;2023-04-01T03:16:25;92727.19;;;12.57;71.05
11345;BME280;5727;42.600;23.028;2023-04-01T03:18:53;92702.91;;;12.67;68.99
11345;BME280;5727;42.600;23.028;2023-04-01T03:21:23;92679.72;;;12.80;69.45
11345;BME280;5727;42.600;23.028;2023-04-01T03:23:50;92662.47;;;12.82;70.18
11345;BME280;5727;42.600;23.028;2023-04-01T03:26:17;92658.69;;;12.80;70.38
11345;BME280;5727;42.600;23.028;2023-04-01T03:28:44;92651.56;;;12.80;70.40
11345;BME280;5727;42.600;23.028;2023-04-01T03:31:11;92649.00;;;12.87;70.63
11345;BME280;5727;42.600;23.028;2023-04-01T03:33:38;92638.88;;;12.89;69.09
11345;BME280;5727;42.600;23.028;2023-04-01T03:36:07;92632.19;;;12.99;68.68
11345;BME280;5727;42.600;23.028;2023-04-01T03:38:34;92636.38;;;13.04;67.84
11345;BME280;5727;42.600;23.028;2023-04-01T03:41:01;92639.44;;;13.13;65.32
11345;BME280;5727;42.600;23.028;2023-04-01T03:43:28;92637.19;;;13.15;66.32
11345;BME280;5727;42.600;23.028;2023-04-01T03:45:54;92632.72;;;13.19;65.60
11345;BME280;5727;42.600;23.028;2023-04-01T03:48:22;92622.59;;;13.21;64.83
11345;BME280;5727;42.600;23.028;2023-04-01T03:50:50;92626.72;;;13.22;63.70
11345;BME280;5727;42.600;23.028;2023-04-01T03:53:18;92622.97;;;13.23;61.54
11345;BME280;5727;42.600;23.028;2023-04-01T03:55:45;92612.44;;;13.19;59.56
11345;BME280;5727;42.600;23.028;2023-04-01T03:58:12;92611.31;;;13.24;57.46
11345;BME280;5727;42.600;23.028;2023-04-01T04:00:39;92598.22;;;13.31;56.10
11345;BME280;5727;42.600;23.028;2023-04-01T04:03:06;92588.81;;;13.33;53.47
11345;BME280;5727;42.600;23.028;2023-04-01T04:05:33;92591.50;;;13.40;53.99
11345;BME280;5727;42.600;23.028;2023-04-01T04:07:59;92591.16;;;13.49;53.57
11345;BME280;5727;42.600;23.028;2023-04-01T04:10:28;92577.59;;;13.47;53.36
11345;BME280;5727;42.600;23.028;2023-04-01T04:12:54;92579.91;;;13.52;53.84
11345;BME280;5727;42.600;23.028;2023-04-01T04:15:22;92572.41;;;13.54;53.09
11345;BME280;5727;42.600;23.028;2023-04-01T04:17:48;92580.69;;;13.56;53.15
11345;BME280;5727;42.600;23.028;2023-04-01T04:20:15;92569.38;;;13.52;52.85
11345;BME280;5727;42.600;23.028;2023-04-01T04:22:42;92579.91;;;13.55;52.38
11345;BME280;5727;42.600;23.028;2023-04-01T04:25:08;92575.41;;;13.56;52.59
11345;BME280;5727;42.600;23.028;2023-04-01T04:27:37;92560.00;;;13.58;52.57
11345;BME280;5727;42.600;23.028;2023-04-01T04:30:05;92558.47;;;13.53;52.51
11345;BME280;5727;42.600;23.028;2023-04-01T04:32:32;92553.59;;;13.55;53.11
11345;BME280;5727;42.600;23.028;2023-04-01T04:34:59;92548.34;;;13.52;53.59
11345;BME280;5727;42.600;23.028;2023-04-01T04:37:26;92540.06;;;13.53;53.22
11345;BME280;5727;42.600;23.028;2023-04-01T04:39:53;92543.03;;;13.45;53.70
11345;BME280;5727;42.600;23.028;2023-04-01T04:42:20;92537.38;;;13.43;53.93
11345;BME280;5727;42.600;23.028;2023-04-01T04:44:48;92531.72;;;13.37;54.24
11345;BME280;5727;42.600;23.028;2023-04-01T04:47:15;92520.81;;;13.32;54.23
11345;BME280;5727;42.600;23.028;2023-04-01T04:49:41;92529.47;;;13.36;54.21
11345;BME280;5727;42.600;23.028;2023-04-01T04:52:08;92520.81;;;13.35;54.74
11345;BME280;5727;42.600;23.028;2023-04-01T04:54:35;92515.53;;;13.32;55.19
11345;BME280;5727;42.600;23.028;2023-04-01T04:57:01;92526.44;;;13.27;55.37
11345;BME280;5727;42.600;23.028;2023-04-01T04:59:28;92520.03;;;13.24;55.37
11345;BME280;5727;42.600;23.028;2023-04-01T05:01:56;92514.00;;;13.24;55.48
11345;BME280;5727;42.600;23.028;2023-04-01T05:04:23;92499.34;;;13.19;55.96
11345;BME280;5727;42.600;23.028;2023-04-01T05:06:50;92492.56;;;13.18;55.67
11345;BME280;5727;42.600;23.028;2023-04-01T05:09:17;92488.81;;;13.16;55.01
11345;BME280;5727;42.600;23.028;2023-04-01T05:11:44;92493.72;;;13.21;54.99
11345;BME280;5727;42.600;23.028;2023-04-01T05:14:13;92484.69;;;13.22;54.81
11345;BME280;5727;42.600;23.028;2023-04-01T05:16:39;92484.31;;;13.20;55.39
11345;BME280;5727;42.600;23.028;2023-04-01T05:19:07;92491.47;;;13.16;56.04
11345;BME280;5727;42.600;23.028;2023-04-01T05:21:34;92495.59;;;13.17;56.02
11345;BME280;5727;42.600;23.028;2023-04-01T05:24:01;92494.09;;;13.23;56.11
11345;BME280;5727;42.600;23.028;2023-04-01T05:26:28;92494.88;;;13.27;56.06
11345;BME280;5727;42.600;23.028;2023-04-01T05:28:55;92490.75;;;13.33;56.31
11345;BME280;5727;42.600;23.028;2023-04-01T05:31:21;92486.25;;;13.33;56.70
11345;BME280;5727;42.600;23.028;2023-04-01T05:33:49;92488.84;;;13.19;57.10
11345;BME280;5727;42.600;23.028;2023-04-01T05:36:17;92459.94;;;13.30;57.13
11345;BME280;5727;42.600;23.028;2023-04-01T05:38:44;92477.63;;;13.40;56.42
11345;BME280;5727;42.600;23.028;2023-04-01T05:41:12;92465.63;;;13.53;56.42
11345;BME280;5727;42.600;23.028;2023-04-01T05:43:40;92463.41;;;13.62;55.65
11345;BME280;5727;42.600;23.028;2023-04-01T05:46:07;92467.19;;;13.75;54.96
11345;BME280;5727;42.600;23.028;2023-04-01T05:48:35;92455.88;;;13.85;55.17
11345;BME280;5727;42.600;23.028;2023-04-01T05:51:01;92457.81;;;14.06;53.91
11345;BME280;5727;42.600;23.028;2023-04-01T05:53:30;92450.63;;;14.20;53.47
11345;BME280;5727;42.600;23.028;2023-04-01T05:55:57;92458.91;;;14.26;52.83
11345;BME280;5727;42.600;23.028;2023-04-01T05:58:23;92463.47;;;14.29;52.76
11345;BME280;5727;42.600;23.028;2023-04-01T06:00:50;92477.00;;;14.34;52.67
11345;BME280;5727;42.600;23.028;2023-04-01T06:03:17;92456.69;;;14.28;52.86
11345;BME280;5727;42.600;23.028;2023-04-01T06:05:44;92452.53;;;14.23;53.06
11345;BME280;5727;42.600;23.028;2023-04-01T06:08:13;92450.63;;;14.24;53.87
11345;BME280;5727;42.600;23.028;2023-04-01T06:11:01;92461.97;;;14.35;53.42
11345;BME280;5727;42.600;23.028;2023-04-01T06:13:42;92455.91;;;14.41;52.99
11345;BME280;5727;42.600;23.028;2023-04-01T06:16:20;92470.56;;;14.53;52.84
11345;BME280;5727;42.600;23.028;2023-04-01T06:18:54;92464.94;;;14.54;53.14
11345;BME280;5727;42.600;23.028;2023-04-01T06:21:37;92453.66;;;14.54;52.62
11345;BME280;5727;42.600;23.028;2023-04-01T06:24:18;92441.97;;;14.65;52.46
11345;BME280;5727;42.600;23.028;2023-04-01T06:26:53;92440.84;;;14.56;53.33
11345;BME280;5727;42.600;23.028;2023-04-01T06:29:44;92431.03;;;14.63;53.30
11345;BME280;5727;42.600;23.028;2023-04-01T06:32:30;92418.59;;;14.68;52.09
11345;BME280;5727;42.600;23.028;2023-04-01T06:41:06;92431.78;;;14.64;52.88
11345;BME280;5727;42.600;23.028;2023-04-01T06:43:50;92429.88;;;14.72;51.96
11345;BME280;5727;42.600;23.028;2023-04-01T06:46:33;92424.22;;;14.66;52.80
11345;BME280;5727;42.600;23.028;2023-04-01T06:49:25;92409.59;;;14.61;52.99
11345;BME280;5727;42.600;23.028;2023-04-01T06:51:59;92412.59;;;14.56;53.54
11345;BME280;5727;42.600;23.028;2023-04-01T06:54:31;92407.31;;;14.56;52.96
11345;BME280;5727;42.600;23.028;2023-04-01T06:57:03;92406.19;;;14.50;53.57
11345;BME280;5727;42.600;23.028;2023-04-01T06:59:35;92392.25;;;14.68;52.57
11345;BME280;5727;42.600;23.028;2023-04-01T07:02:09;92392.59;;;14.77;52.20
11345;BME280;5727;42.600;23.028;2023-04-01T07:04:43;92378.25;;;14.78;51.23
11345;BME280;5727;42.600;23.028;2023-04-01T07:07:15;92372.97;;;14.81;50.92
11345;BME280;5727;42.600;23.028;2023-04-01T07:09:50;92397.81;;;14.87;50.27
11345;BME280;5727;42.600;23.028;2023-04-01T07:12:22;92404.50;;;15.02;49.85
11345;BME280;5727;42.600;23.028;2023-04-01T07:14:56;92405.97;;;15.14;50.15
11345;BME280;5727;42.600;23.028;2023-04-01T07:17:28;92406.28;;;15.30;49.36
11345;BME280;5727;42.600;23.028;2023-04-01T07:20:02;92400.25;;;15.33;48.58
11345;BME280;5727;42.600;23.028;2023-04-01T07:22:33;92406.69;;;15.25;48.02
11345;BME280;5727;42.600;23.028;2023-04-01T07:25:03;92410.41;;;15.34;47.85
11345;BME280;5727;42.600;23.028;2023-04-01T07:27:32;92418.66;;;15.40;47.54
11345;BME280;5727;42.600;23.028;2023-04-01T07:30:01;92413.38;;;15.40;47.70
11345;BME280;5727;42.600;23.028;2023-04-01T07:32:34;92418.72;;;15.33;47.28
11345;BME280;5727;42.600;23.028;2023-04-01T07:35:13;92425.09;;;15.35;47.08
11345;BME280;5727;42.600;23.028;2023-04-01T07:37:53;92420.22;;;15.30;47.07
11345;BME280;5727;42.600;23.028;2023-04-01T07:40:29;92419.47;;;15.30;46.53
11345;BME280;5727;42.600;23.028;2023-04-01T07:43:19;92413.84;;;15.24;46.76
11345;BME280;5727;42.600;23.028;2023-04-01T07:45:58;92419.91;;;15.18;47.05
11345;BME280;5727;42.600;23.028;2023-04-01T07:48:33;92423.25;;;15.29;46.69
11345;BME280;5727;42.600;23.028;2023-04-01T07:51:03;92413.44;;;15.33;46.39
11345;BME280;5727;42.600;23.028;2023-04-01T07:53:38;92413.50;;;15.19;46.55
11345;BME280;5727;42.600;23.028;2023-04-01T07:56:10;92406.38;;;15.12;47.08
11345;BME280;5727;42.600;23.028;2023-04-01T07:58:49;92384.13;;;15.17;46.91
11345;BME280;5727;42.600;23.028;2023-04-01T08:01:25;92384.03;;;15.34;46.57
11345;BME280;5727;42.600;23.028;2023-04-01T08:04:12;92373.44;;;15.38;46.32
11345;BME280;5727;42.600;23.028;2023-04-01T08:06:46;92386.34;;;15.22;47.13
11345;BME280;5727;42.600;23.028;2023-04-01T08:09:21;92359.19;;;15.28;46.79
11345;BME280;5727;42.600;23.028;2023-04-01T08:12:02;92362.16;;;15.34;46.12
11345;BME280;5727;42.600;23.028;2023-04-01T08:14:39;92349.63;;;15.52;46.29
11345;BME280;5727;42.600;23.028;2023-04-01T08:17:16;92350.69;;;15.58;45.88
11345;BME280;5727;42.600;23.028;2023-04-01T08:19:56;92346.91;;;15.63;45.57
11345;BME280;5727;42.600;23.028;2023-04-01T08:22:30;92345.03;;;15.63;46.25
11345;BME280;5727;42.600;23.028;2023-04-01T08:25:02;92332.34;;;15.44;45.92
11345;BME280;5727;42.600;23.028;2023-04-01T08:27:36;92322.88;;;15.50;45.84
11345;BME280;5727;42.600;23.028;2023-04-01T08:30:14;92305.13;;;15.54;44.88
11345;BME280;5727;42.600;23.028;2023-04-01T08:32:47;92318.84;;;15.83;43.06
11345;BME280;5727;42.600;23.028;2023-04-01T08:35:24;92323.41;;;16.19;42.89
11345;BME280;5727;42.600;23.028;2023-04-01T08:37:53;92322.03;;;16.41;41.62
11345;BME280;5727;42.600;23.028;2023-04-01T08:40:58;92332.16;;;16.46;41.72
11345;BME280;5727;42.600;23.028;2023-04-01T08:43:41;92323.38;;;16.57;40.38
11345;BME280;5727;42.600;23.028;2023-04-01T08:49:30;92324.53;;;16.56;40.35
11345;BME280;5727;42.600;23.028;2023-04-01T08:52:22;92319.53;;;16.65;39.90
11345;BME280;5727;42.600;23.028;2023-04-01T08:55:04;92313.78;;;16.70;40.19
11345;BME280;5727;42.600;23.028;2023-04-01T08:57:45;92315.59;;;16.76;39.90
11345;BME280;5727;42.600;23.028;2023-04-01T09:00:23;92314.06;;;16.79;39.45
11345;BME280;5727;42.600;23.028;2023-04-01T09:03:19;92314.31;;;16.88;39.91
11345;BME280;5727;42.600;23.028;2023-04-01T09:09:03;92334.16;;;17.03;40.29
11345;BME280;5727;42.600;23.028;2023-04-01T09:11:58;92328.59;;;16.94;40.39
11345;BME280;5727;42.600;23.028;2023-04-01T09:14:44;92311.91;;;16.70;40.71
11345;BME280;5727;42.600;23.028;2023-04-01T09:17:58;92304.41;;;16.65;41.42
11345;BME280;5727;42.600;23.028;2023-04-01T09:20:46;92300.25;;;16.64;41.46
11345;BME280;5727;42.600;23.028;2023-04-01T09:23:38;92304.25;;;16.76;41.40
11345;BME280;5727;42.600;23.028;2023-04-01T09:26:23;92300.44;;;16.80;41.18
11345;BME280;5727;42.600;23.028;2023-04-01T09:29:02;92294.50;;;16.73;41.75
11345;BME280;5727;42.600;23.028;2023-04-01T09:35:14;92281.69;;;16.98;40.86
11345;BME280;5727;42.600;23.028;2023-04-01T09:37:53;92256.25;;;17.07;40.62
11345;BME280;5727;42.600;23.028;2023-04-01T09:40:31;92260.53;;;17.24;40.70
11345;BME280;5727;42.600;23.028;2023-04-01T09:43:28;92249.66;;;17.42;40.30
11345;BME280;5727;42.600;23.028;2023-04-01T09:46:11;92248.38;;;17.54;40.12
11345;BME280;5727;42.600;23.028;2023-04-01T09:51:49;92239.63;;;17.57;40.42
11345;BME280;5727;42.600;23.028;2023-04-01T09:54:35;92232.06;;;17.55;40.88
11345;BME280;5727;42.600;23.028;2023-04-01T09:57:25;92217.75;;;17.53;40.90
11345;BME280;5727;42.600;23.028;2023-04-01T10:00:15;92228.50;;;17.65;41.28
11345;BME280;5727;42.600;23.028;2023-04-01T10:03:15;92227.34;;;17.66;41.49
11345;BME280;5727;42.600;23.028;2023-04-01T10:06:16;92227.19;;;17.96;41.24
11345;BME280;5727;42.600;23.028;2023-04-01T10:09:11;92219.72;;;17.91;41.91
11345;BME280;5727;42.600;23.028;2023-04-01T10:12:25;92213.38;;;17.85;41.99
11345;BME280;5727;42.600;23.028;2023-04-01T10:15:27;92210.31;;;17.67;42.44
11345;BME280;5727;42.600;23.028;2023-04-01T10:18:08;92205.72;;;17.48;43.36
11345;BME280;5727;42.600;23.028;2023-04-01T10:20:53;92210.75;;;17.39;43.86
11345;BME280;5727;42.600;23.028;2023-04-01T10:23:31;92202.22;;;17.28;43.87
11345;BME280;5727;42.600;23.028;2023-04-01T10:26:39;92188.19;;;17.31;44.13
11345;BME280;5727;42.600;23.028;2023-04-01T10:29:30;92185.53;;;17.31;44.44
11345;BME280;5727;42.600;23.028;2023-04-01T10:38:48;92168.81;;;17.37;43.25
11345;BME280;5727;42.600;23.028;2023-04-01T10:41:54;92174.91;;;17.34;42.44
11345;BME280;5727;42.600;23.028;2023-04-01T10:56:51;92136.88;;;17.25;42.32
11345;BME280;5727;42.600;23.028;2023-04-01T10:59:45;92133.41;;;17.28;43.03
11345;BME280;5727;42.600;23.028;2023-04-01T11:09:28;92156.13;;;17.25;43.97
11345;BME280;5727;42.600;23.028;2023-04-01T11:12:23;92184.03;;;17.07;46.82
11345;BME280;5727;42.600;23.028;2023-04-01T11:18:47;92234.22;;;14.39;83.55
11345;BME280;5727;42.600;23.028;2023-04-01T11:24:38;92296.41;;;12.89;87.59
11345;BME280;5727;42.600;23.028;2023-04-01T11:27:29;92311.31;;;12.46;96.79
11345;BME280;5727;42.600;23.028;2023-04-01T11:30:33;92327.22;;;12.03;100.00
11345;BME280;5727;42.600;23.028;2023-04-01T11:33:12;92354.06;;;11.31;100.00
11345;BME280;5727;42.600;23.028;2023-04-01T11:36:03;92371.66;;;10.90;100.00
11345;BME280;5727;42.600;23.028;2023-04-01T11:41:32;92382.94;;;10.61;100.00
11345;BME280;5727;42.600;23.028;2023-04-01T11:44:16;92395.19;;;10.54;100.00
11345;BME280;5727;42.600;23.028;2023-04-01T11:46:52;92383.88;;;10.46;100.00
11345;BME280;5727;42.600;23.028;2023-04-01T11:49:37;92390.06;;;10.31;100.00
11345;BME280;5727;42.600;23.028;2023-04-01T11:52:24;92378.91;;;10.38;100.00
11345;BME280;5727;42.600;23.028;2023-04-01T11:55:06;92384.31;;;10.52;100.00
11345;BME280;5727;42.600;23.028;2023-04-01T11:58:21;92389.38;;;10.67;100.00
11345;BME280;5727;42.600;23.028;2023-04-01T12:01:16;92381.16;;;10.69;100.00
11345;BME280;5727;42.600;23.028;2023-04-01T12:07:13;92383.09;;;10.75;100.00
11345;BME280;5727;42.600;23.028;2023-04-01T12:09:48;92386.84;;;10.78;100.00
11345;BME280;5727;42.600;23.028;2023-04-01T12:12:25;92398.56;;;10.87;100.00
11345;BME280;5727;42.600;23.028;2023-04-01T12:15:05;92406.16;;;10.96;100.00
11345;BME280;5727;42.600;23.028;2023-04-01T12:17:44;92409.19;;;11.01;100.00
11345;BME280;5727;42.600;23.028;2023-04-01T12:20:24;92427.28;;;11.10;100.00
11345;BME280;5727;42.600;23.028;2023-04-01T12:23:00;92430.31;;;11.16;100.00
11345;BME280;5727;42.600;23.028;2023-04-01T12:25:45;92440.03;;;11.15;100.00
11345;BME280;5727;42.600;23.028;2023-04-01T12:28:24;92426.59;;;11.20;100.00
11345;BME280;5727;42.600;23.028;2023-04-01T12:31:06;92425.19;;;11.30;100.00
11345;BME280;5727;42.600;23.028;2023-04-01T12:33:50;92431.41;;;11.15;100.00
11345;BME280;5727;42.600;23.028;2023-04-01T12:36:38;92419.22;;;10.92;100.00
11345;BME280;5727;42.600;23.028;2023-04-01T12:39:26;92405.28;;;10.85;100.00
11345;BME280;5727;42.600;23.028;2023-04-01T12:42:07;92386.94;;;10.85;100.00
11345;BME280;5727;42.600;23.028;2023-04-01T12:44:54;92390.41;;;10.92;100.00
11345;BME280;5727;42.600;23.028;2023-04-01T12:50:54;92362.75;;;10.98;100.00
11345;BME280;5727;42.600;23.028;2023-04-01T12:53:38;92339.69;;;11.15;100.00
11345;BME280;5727;42.600;23.028;2023-04-01T12:56:14;92317.06;;;11.43;100.00
11345;BME280;5727;42.600;23.028;2023-04-01T12:58:59;92321.84;;;11.78;100.00
11345;BME280;5727;42.600;23.028;2023-04-01T13:01:49;92330.97;;;11.94;100.00
11345;BME280;5727;42.600;23.028;2023-04-01T13:04:35;92341.19;;;12.14;100.00
11345;BME280;5727;42.600;23.028;2023-04-01T13:07:20;92341.31;;;12.38;100.00
11345;BME280;5727;42.600;23.028;2023-04-01T13:09:53;92346.91;;;12.33;100.00
11345;BME280;5727;42.600;23.028;2023-04-01T13:12:40;92361.94;;;12.36;100.00
11345;BME280;5727;42.600;23.028;2023-04-01T13:15:24;92350.38;;;12.58;100.00
11345;BME280;5727;42.600;23.028;2023-04-01T13:17:55;92346.13;;;13.57;100.00
11345;BME280;5727;42.600;23.028;2023-04-01T13:20:35;92327.28;;;15.64;100.00
11345;BME280;5727;42.600;23.028;2023-04-01T13:23:16;92327.44;;;17.25;89.15
11345;BME280;5727;42.600;23.028;2023-04-01T13:25:53;92301.44;;;19.30;75.12
11345;BME280;5727;42.600;23.028;2023-04-01T13:28:24;92288.03;;;21.00;67.66
11345;BME280;5727;42.600;23.028;2023-04-01T13:31:00;92288.13;;;20.84;59.34
11345;BME280;5727;42.600;23.028;2023-04-01T13:33:37;92286.72;;;20.67;61.52
11345;BME280;5727;42.600;23.028;2023-04-01T13:36:17;92271.47;;;21.46;59.83
11345;BME280;5727;42.600;23.028;2023-04-01T13:39:00;92265.25;;;22.21;58.90
11345;BME280;5727;42.600;23.028;2023-04-01T13:42:10;92267.69;;;22.84;53.38
11345;BME280;5727;42.600;23.028;2023-04-01T13:44:43;92267.94;;;21.37;55.18
11345;BME280;5727;42.600;23.028;2023-04-01T13:47:36;92271.56;;;21.68;50.67
11345;BME280;5727;42.600;23.028;2023-04-01T13:50:22;92248.63;;;22.17;54.12
11345;BME280;5727;42.600;23.028;2023-04-01T13:53:21;92230.19;;;21.63;52.36
11345;BME280;5727;42.600;23.028;2023-04-01T13:55:58;92240.22;;;20.14;55.55
11345;BME280;5727;42.600;23.028;2023-04-01T13:58:38;92237.06;;;18.55;60.89
11345;BME280;5727;42.600;23.028;2023-04-01T14:01:13;92238.16;;;20.05;62.17
11345;BME280;5727;42.600;23.028;2023-04-01T14:04:09;92244.78;;;20.14;58.63
11345;BME280;5727;42.600;23.028;2023-04-01T14:06:49;92232.16;;;19.73;61.17
11345;BME280;5727;42.600;23.028;2023-04-01T14:09:32;92238.81;;;19.65;61.06
11345;BME280;5727;42.600;23.028;2023-04-01T14:12:09;92237.28;;;19.32;62.59
11345;BME280;5727;42.600;23.028;2023-04-01T14:14:54;92224.97;;;18.89;64.04
11345;BME280;5727;42.600;23.028;2023-04-01T14:17:34;92224.66;;;19.03;65.55
11345;BME280;5727;42.600;23.028;2023-04-01T14:20:29;92225.56;;;18.97;67.76
11345;BME280;5727;42.600;23.028;2023-04-01T14:23:13;92223.28;;;19.15;67.21
11345;BME280;5727;42.600;23.028;2023-04-01T14:25:55;92220.13;;;19.68;65.04
11345;BME280;5727;42.600;23.028;2023-04-01T14:28:35;92222.25;;;20.34;60.72
11345;BME280;5727;42.600;23.028;2023-04-01T14:34:14;92201.88;;;20.69;59.42
11345;BME280;5727;42.600;23.028;2023-04-01T14:36:50;92189.63;;;20.59;59.08
11345;BME280;5727;42.600;23.028;2023-04-01T14:39:42;92195.91;;;20.65;56.07
11345;BME280;5727;42.600;23.028;2023-04-01T14:42:23;92195.59;;;20.63;56.94
11345;BME280;5727;42.600;23.028;2023-04-01T14:45:33;92205.53;;;20.18;59.34
11345;BME280;5727;42.600;23.028;2023-04-01T14:48:17;92194.22;;;20.30;62.09
11345;BME280;5727;42.600;23.028;2023-04-01T14:50:51;92187.97;;;21.62;56.42